Time;durP1;ratioP1;P1;durP2;ratioP2;P2;SDS_P1;SDS_P2;PMS_P1;PMS_P2;Temp;Humidity;BMP_temperature;BMP_pressure;BME280_temperature;BME280_humidity;BME280_pressure;Samples;Min_cycle;Max_cycle;Signal;HPM_P1;HPM_P2
2022/12/30 00:02:24;;;;;;;1.40;1.10;;;;;;;;;;5075273;28;20451;-60
2022/12/30 00:04:51;;;;;;;4.33;1.57;;;;;;;;;;5074118;28;20480;-60
2022/12/30 00:07:19;;;;;;;2.47;1.10;;;;;;;;;;5075135;28;20546;-60
2022/12/30 00:09:47;;;;;;;2.60;1.70;;;;;;;;;;5075410;28;20472;-60
2022/12/30 00:34:17;;;;;;;3.60;1.47;;;;;;;;;;5053371;28;20448;-60
2022/12/30 00:36:44;;;;;;;4.27;1.33;;;;;;;;;;5074428;28;20527;-60
2022/12/30 00:39:11;;;;;;;2.50;1.50;;;;;;;;;;5074669;28;20530;-60
2022/12/30 00:44:32;;;;;;;1.43;1.33;;;;;;;;;;5049713;28;20476;-60
2022/12/30 00:47:00;;;;;;;5.20;1.70;;;;;;;;;;5074237;28;20953;-60
2022/12/30 00:57:42;;;;;;;1.83;1.67;;;;;;;;;;5074404;28;20482;-60
2022/12/30 01:00:10;;;;;;;3.27;1.33;;;;;;;;;;5074232;28;20448;-60
2022/12/30 01:02:37;;;;;;;4.30;1.30;;;;;;;;;;5074068;28;20495;-60
2022/12/30 01:05:04;;;;;;;1.63;1.30;;;;;;;;;;5073997;28;20451;-60
2022/12/30 01:07:31;;;;;;;1.70;1.07;;;;;;;;;;5073969;28;20448;-60
2022/12/30 01:09:58;;;;;;;4.17;1.50;;;;;;;;;;5073681;28;20477;-60
2022/12/30 01:12:24;;;;;;;2.03;1.20;;;;;;;;;;5073972;28;20454;-60
2022/12/30 01:14:54;;;;;;;2.63;1.30;;;;;;;;;;5073658;28;20444;-60
2022/12/30 01:17:22;;;;;;;4.50;1.50;;;;;;;;;;5073784;28;20541;-60
2022/12/30 01:19:49;;;;;;;1.53;1.30;;;;;;;;;;5073707;28;20801;-60
2022/12/30 01:22:16;;;;;;;1.73;1.20;;;;;;;;;;5073531;28;20448;-60
2022/12/30 01:24:43;;;;;;;1.47;1.20;;;;;;;;;;5073541;28;20454;-60
2022/12/30 01:27:10;;;;;;;2.63;1.13;;;;;;;;;;5073700;28;20521;-60
2022/12/30 01:29:38;;;;;;;4.90;1.70;;;;;;;;;;5073502;28;20475;-61
2022/12/30 01:32:07;;;;;;;5.10;1.20;;;;;;;;;;5073514;28;20535;-60
2022/12/30 01:34:35;;;;;;;2.97;1.40;;;;;;;;;;5073474;28;20966;-60
2022/12/30 01:37:02;;;;;;;3.63;2.40;;;;;;;;;;5073301;28;20448;-60
2022/12/30 01:39:29;;;;;;;2.53;1.20;;;;;;;;;;5073533;28;20453;-60
2022/12/30 01:41:56;;;;;;;3.07;1.30;;;;;;;;;;5073476;28;20536;-60
2022/12/30 01:44:42;;;;;;;4.90;1.47;;;;;;;;;;5073220;28;20562;-60
2022/12/30 01:47:12;;;;;;;6.70;1.73;;;;;;;;;;5073236;28;20538;-60
2022/12/30 01:49:40;;;;;;;3.07;1.40;;;;;;;;;;5073281;28;20444;-60
2022/12/30 01:52:07;;;;;;;3.63;1.80;;;;;;;;;;5073010;28;20935;-60
2022/12/30 01:54:36;;;;;;;2.80;1.37;;;;;;;;;;5073279;28;20447;-60
2022/12/30 01:57:04;;;;;;;2.70;1.30;;;;;;;;;;5073295;28;20534;-60
2022/12/30 01:59:31;;;;;;;1.77;1.43;;;;;;;;;;5073110;28;20531;-60
2022/12/30 02:01:58;;;;;;;3.47;1.80;;;;;;;;;;5073237;28;20534;-60
2022/12/30 02:04:28;;;;;;;2.43;1.30;;;;;;;;;;5073206;28;20893;-60
2022/12/30 02:07:00;;;;;;;2.77;1.27;;;;;;;;;;5073423;28;20535;-60
2022/12/30 02:09:28;;;;;;;1.57;1.40;;;;;;;;;;5073373;28;20454;-60
2022/12/30 02:11:55;;;;;;;3.93;1.10;;;;;;;;;;5072954;28;20479;-60
2022/12/30 02:14:22;;;;;;;2.47;1.57;;;;;;;;;;5072911;28;20447;-60
2022/12/30 02:16:54;;;;;;;3.67;1.40;;;;;;;;;;5073106;28;20451;-60
2022/12/30 02:19:38;;;;;;;3.83;1.30;;;;;;;;;;5073034;28;20455;-60
2022/12/30 02:22:09;;;;;;;2.13;1.40;;;;;;;;;;5072904;28;20824;-60
2022/12/30 02:24:57;;;;;;;2.40;1.20;;;;;;;;;;5072881;28;20546;-60
2022/12/30 02:27:52;;;;;;;1.60;0.90;;;;;;;;;;5073962;28;20534;-60
2022/12/30 02:30:20;;;;;;;2.33;1.00;;;;;;;;;;5077095;28;20471;-60
2022/12/30 02:32:57;;;;;;;4.17;1.30;;;;;;;;;;5077169;28;20542;-60
2022/12/30 02:35:28;;;;;;;3.90;1.50;;;;;;;;;;5076823;28;20826;-60
2022/12/30 02:38:00;;;;;;;3.90;1.80;;;;;;;;;;5077037;28;20543;-60
2022/12/30 02:44:36;;;;;;;2.63;1.20;;;;;;;;;;5076849;28;20456;-60
2022/12/30 02:46:07;;;;;;;2.83;1.20;;;;;;;;;;5076594;28;20519;-60
2022/12/30 02:48:37;;;;;;;3.73;1.30;;;;;;;;;;5076784;28;20462;-60
2022/12/30 02:53:49;;;;;;;4.00;1.70;;;;;;;;;;5076560;28;20443;-60
2022/12/30 02:56:16;;;;;;;2.70;1.00;;;;;;;;;;5076398;28;20531;-60
2022/12/30 02:58:46;;;;;;;2.80;1.10;;;;;;;;;;5076385;28;21029;-60
2022/12/30 03:04:10;;;;;;;1.53;1.17;;;;;;;;;;5076536;28;20509;-60
2022/12/30 03:06:43;;;;;;;4.43;1.30;;;;;;;;;;5076418;28;20534;-61
2022/12/30 03:09:15;;;;;;;2.37;1.07;;;;;;;;;;5076433;28;20448;-60
2022/12/30 03:11:45;;;;;;;3.67;1.60;;;;;;;;;;5076243;28;20566;-60
2022/12/30 03:14:15;;;;;;;6.70;1.20;;;;;;;;;;5076238;28;20819;-60
2022/12/30 03:16:45;;;;;;;3.27;1.17;;;;;;;;;;5076018;28;20447;-60
2022/12/30 03:19:15;;;;;;;4.70;1.47;;;;;;;;;;5075868;28;20448;-60
2022/12/30 03:21:43;;;;;;;3.07;1.20;;;;;;;;;;5076141;28;20971;-60
2022/12/30 03:27:04;;;;;;;4.37;1.37;;;;;;;;;;5076078;28;20467;-60
2022/12/30 03:29:34;;;;;;;2.60;1.20;;;;;;;;;;5075714;28;20450;-60
2022/12/30 03:32:01;;;;;;;3.57;1.40;;;;;;;;;;5075866;28;20517;-60
2022/12/30 03:34:29;;;;;;;3.63;1.20;;;;;;;;;;5075823;28;21032;-61
2022/12/30 03:36:59;;;;;;;5.60;1.53;;;;;;;;;;5075659;28;20443;-60
2022/12/30 03:39:30;;;;;;;2.90;1.10;;;;;;;;;;5075496;28;20803;-60
2022/12/30 03:41:58;;;;;;;2.73;0.97;;;;;;;;;;5075516;28;20550;-60
2022/12/30 03:44:25;;;;;;;5.10;1.67;;;;;;;;;;5075194;28;20558;-60
2022/12/30 03:46:52;;;;;;;4.10;1.20;;;;;;;;;;5075704;28;20534;-60
2022/12/30 03:49:19;;;;;;;2.97;1.20;;;;;;;;;;5075446;28;20443;-60
2022/12/30 03:51:47;;;;;;;2.80;1.37;;;;;;;;;;5075315;28;20526;-60
2022/12/30 03:54:14;;;;;;;3.30;1.20;;;;;;;;;;5075244;28;20454;-60
2022/12/30 03:56:41;;;;;;;2.93;1.17;;;;;;;;;;5075174;28;20455;-60
2022/12/30 03:59:08;;;;;;;5.10;1.40;;;;;;;;;;5075429;28;20530;-60
2022/12/30 04:01:35;;;;;;;2.00;1.17;;;;;;;;;;5075330;28;20443;-60
2022/12/30 04:04:02;;;;;;;3.03;1.60;;;;;;;;;;5075361;28;20880;-60
2022/12/30 04:06:29;;;;;;;3.23;1.23;;;;;;;;;;5075138;28;20475;-60
2022/12/30 04:08:57;;;;;;;4.40;1.23;;;;;;;;;;5075103;28;20475;-60
2022/12/30 04:11:24;;;;;;;6.87;1.30;;;;;;;;;;5074887;28;20582;-60
2022/12/30 04:13:52;;;;;;;4.07;1.43;;;;;;;;;;5075174;28;20494;-60
2022/12/30 04:16:19;;;;;;;2.60;1.40;;;;;;;;;;5075059;28;20462;-60
2022/12/30 04:18:46;;;;;;;5.03;1.60;;;;;;;;;;5074938;28;20452;-60
2022/12/30 04:21:13;;;;;;;2.70;1.43;;;;;;;;;;5074910;28;20827;-60
2022/12/30 04:23:40;;;;;;;4.30;1.30;;;;;;;;;;5074803;28;21013;-60
2022/12/30 04:26:08;;;;;;;6.47;1.70;;;;;;;;;;5074872;28;20594;-60
2022/12/30 04:28:35;;;;;;;4.07;1.30;;;;;;;;;;5074692;28;20487;-60
2022/12/30 04:31:02;;;;;;;2.53;1.83;;;;;;;;;;5074689;28;20555;-60
2022/12/30 04:33:29;;;;;;;3.63;1.37;;;;;;;;;;5074688;28;20475;-60
2022/12/30 04:35:56;;;;;;;5.10;1.50;;;;;;;;;;5074499;28;20539;-60
2022/12/30 04:38:23;;;;;;;4.27;1.13;;;;;;;;;;5074304;28;20447;-60
2022/12/30 04:40:50;;;;;;;4.00;1.50;;;;;;;;;;5074667;28;20559;-60
2022/12/30 04:43:18;;;;;;;2.33;1.20;;;;;;;;;;5074593;28;20525;-60
2022/12/30 04:45:45;;;;;;;1.47;1.07;;;;;;;;;;5074194;28;20482;-60
2022/12/30 04:48:12;;;;;;;3.73;1.60;;;;;;;;;;5074622;28;20547;-60
2022/12/30 04:50:42;;;;;;;2.80;1.30;;;;;;;;;;5073558;28;20550;-61
2022/12/30 04:53:09;;;;;;;3.40;1.60;;;;;;;;;;5074089;28;20963;-60
2022/12/30 04:55:36;;;;;;;4.33;1.50;;;;;;;;;;5074288;28;20455;-60
2022/12/30 04:58:03;;;;;;;1.67;1.00;;;;;;;;;;5074222;28;20929;-60
2022/12/30 05:00:31;;;;;;;3.63;1.20;;;;;;;;;;5073948;28;20539;-60
2022/12/30 05:02:58;;;;;;;2.43;1.37;;;;;;;;;;5073947;28;20542;-60
2022/12/30 05:05:25;;;;;;;3.30;1.20;;;;;;;;;;5073849;28;20465;-60
2022/12/30 05:07:52;;;;;;;2.87;1.30;;;;;;;;;;5074031;28;20458;-60
2022/12/30 05:10:19;;;;;;;2.80;1.10;;;;;;;;;;5073925;28;20883;-60
2022/12/30 05:12:46;;;;;;;4.00;1.30;;;;;;;;;;5073750;28;20501;-60
2022/12/30 05:15:13;;;;;;;3.60;1.30;;;;;;;;;;5073836;28;21010;-60
2022/12/30 05:17:41;;;;;;;5.00;1.60;;;;;;;;;;5073653;28;20953;-60
2022/12/30 05:20:09;;;;;;;5.13;1.60;;;;;;;;;;5073505;28;20451;-60
2022/12/30 05:22:35;;;;;;;5.23;1.70;;;;;;;;;;5073747;28;20897;-60
2022/12/30 05:27:47;;;;;;;4.33;1.57;;;;;;;;;;5073504;28;20782;-60
2022/12/30 05:30:14;;;;;;;2.27;1.30;;;;;;;;;;5073394;28;21014;-61
2022/12/30 05:32:43;;;;;;;4.97;1.53;;;;;;;;;;5073275;28;20546;-60
2022/12/30 05:35:10;;;;;;;5.10;2.37;;;;;;;;;;5073302;28;20540;-60
2022/12/30 05:37:37;;;;;;;5.73;1.37;;;;;;;;;;5073432;28;20450;-60
2022/12/30 05:40:04;;;;;;;6.83;1.57;;;;;;;;;;5073363;28;20578;-60
2022/12/30 05:42:31;;;;;;;7.50;2.10;;;;;;;;;;5073225;28;20886;-60
2022/12/30 05:44:58;;;;;;;2.97;1.50;;;;;;;;;;5072948;28;20475;-60
2022/12/30 05:47:25;;;;;;;2.90;1.20;;;;;;;;;;5073337;28;20541;-60
2022/12/30 05:49:53;;;;;;;6.70;2.13;;;;;;;;;;5073303;28;20550;-60
2022/12/30 05:52:20;;;;;;;4.30;1.70;;;;;;;;;;5073103;28;20484;-60
2022/12/30 05:54:47;;;;;;;4.20;1.47;;;;;;;;;;5073143;28;20448;-60
2022/12/30 05:57:14;;;;;;;3.30;1.20;;;;;;;;;;5073106;28;20457;-60
2022/12/30 05:59:41;;;;;;;2.73;1.33;;;;;;;;;;5073013;28;20451;-60
2022/12/30 06:02:08;;;;;;;4.27;1.40;;;;;;;;;;5072429;28;20537;-60
2022/12/30 06:04:36;;;;;;;3.90;1.90;;;;;;;;;;5073375;28;20897;-60
2022/12/30 06:07:04;;;;;;;7.50;1.80;;;;;;;;;;5073236;28;21045;-60
2022/12/30 06:09:31;;;;;;;3.90;1.40;;;;;;;;;;5072941;28;20454;-60
2022/12/30 06:11:58;;;;;;;6.03;1.60;;;;;;;;;;5072654;28;21068;-60
2022/12/30 06:14:25;;;;;;;2.00;1.30;;;;;;;;;;5073058;28;20502;-60
2022/12/30 06:16:52;;;;;;;6.73;1.63;;;;;;;;;;5073005;28;20810;-60
2022/12/30 06:19:19;;;;;;;2.13;1.30;;;;;;;;;;5072863;28;20442;-60
2022/12/30 06:21:46;;;;;;;3.77;1.50;;;;;;;;;;5072925;28;20545;-60
2022/12/30 06:24:14;;;;;;;5.63;2.33;;;;;;;;;;5072731;28;20539;-60
2022/12/30 06:26:41;;;;;;;5.17;1.50;;;;;;;;;;5072707;28;20625;-60
2022/12/30 06:29:08;;;;;;;6.83;1.80;;;;;;;;;;5072828;28;20444;-60
2022/12/30 06:31:35;;;;;;;4.40;1.40;;;;;;;;;;5072804;28;20573;-60
2022/12/30 06:34:02;;;;;;;3.57;1.50;;;;;;;;;;5072698;28;20451;-60
2022/12/30 06:36:29;;;;;;;9.67;1.97;;;;;;;;;;5072647;28;20536;-60
2022/12/30 06:38:55;;;;;;;3.40;1.60;;;;;;;;;;5072692;28;20899;-60
2022/12/30 06:41:24;;;;;;;3.60;1.87;;;;;;;;;;5072486;28;20947;-60
2022/12/30 06:43:51;;;;;;;7.93;1.87;;;;;;;;;;5072853;28;20546;-60
2022/12/30 06:46:18;;;;;;;3.63;1.10;;;;;;;;;;5072457;28;20805;-60
2022/12/30 06:48:44;;;;;;;4.73;1.87;;;;;;;;;;5072595;28;20454;-60
2022/12/30 06:51:11;;;;;;;9.90;1.83;;;;;;;;;;5072431;28;20785;-60
2022/12/30 06:53:38;;;;;;;4.93;1.43;;;;;;;;;;5072560;28;21017;-60
2022/12/30 06:56:06;;;;;;;6.10;1.43;;;;;;;;;;5072689;28;20529;-60
2022/12/30 06:58:35;;;;;;;2.50;1.50;;;;;;;;;;5072357;28;20512;-60
2022/12/30 07:01:02;;;;;;;5.40;1.57;;;;;;;;;;5072364;28;20946;-60
2022/12/30 07:03:28;;;;;;;3.77;1.37;;;;;;;;;;5072430;28;20443;-59
2022/12/30 07:05:55;;;;;;;4.82;1.40;;;;;;;;;;5072344;28;20480;-60
2022/12/30 07:08:22;;;;;;;9.30;2.13;;;;;;;;;;5072287;28;20228;-60
2022/12/30 07:10:49;;;;;;;5.93;1.87;;;;;;;;;;5072629;28;20543;-60
2022/12/30 07:13:16;;;;;;;6.13;1.43;;;;;;;;;;5072918;28;20573;-60
2022/12/30 07:15:45;;;;;;;3.97;1.63;;;;;;;;;;5076050;28;20549;-59
2022/12/30 07:18:12;;;;;;;4.63;1.50;;;;;;;;;;5075944;28;20795;-60
2022/12/30 07:20:38;;;;;;;4.33;1.37;;;;;;;;;;5075936;28;20957;-60
2022/12/30 07:23:06;;;;;;;5.67;1.80;;;;;;;;;;5075728;28;20533;-60
2022/12/30 07:25:33;;;;;;;2.90;1.83;;;;;;;;;;5075938;28;20546;-60
2022/12/30 07:28:00;;;;;;;3.80;1.27;;;;;;;;;;5075873;28;20541;-59
2022/12/30 07:30:27;;;;;;;6.50;1.90;;;;;;;;;;5075724;28;20853;-60
2022/12/30 07:32:55;;;;;;;3.53;1.40;;;;;;;;;;5075673;28;20574;-60
2022/12/30 07:35:22;;;;;;;4.00;1.93;;;;;;;;;;5075420;28;20950;-60
2022/12/30 07:37:50;;;;;;;2.53;1.20;;;;;;;;;;5075727;28;20459;-60
2022/12/30 07:40:17;;;;;;;4.13;1.57;;;;;;;;;;5075658;28;20493;-60
2022/12/30 07:42:44;;;;;;;3.10;1.47;;;;;;;;;;5075370;28;20538;-60
2022/12/30 07:45:11;;;;;;;5.13;1.50;;;;;;;;;;5075414;28;20474;-60
2022/12/30 07:47:38;;;;;;;2.33;1.70;;;;;;;;;;5075439;28;20537;-60
2022/12/30 07:50:07;;;;;;;2.40;1.30;;;;;;;;;;5075225;28;20447;-60
2022/12/30 07:52:34;;;;;;;7.17;1.77;;;;;;;;;;5075384;28;20487;-60
2022/12/30 07:55:01;;;;;;;6.87;3.63;;;;;;;;;;5075291;28;20538;-60
2022/12/30 07:57:28;;;;;;;4.43;1.80;;;;;;;;;;5075181;28;20455;-60
2022/12/30 07:59:55;;;;;;;4.20;1.50;;;;;;;;;;5075194;28;20491;-60
2022/12/30 08:02:22;;;;;;;3.47;1.67;;;;;;;;;;5075085;28;20454;-60
2022/12/30 08:04:49;;;;;;;7.97;1.80;;;;;;;;;;5074984;28;20448;-60
2022/12/30 08:07:18;;;;;;;3.70;1.70;;;;;;;;;;5075163;28;20545;-60
2022/12/30 08:09:44;;;;;;;4.20;1.70;;;;;;;;;;5075057;28;20538;-60
2022/12/30 08:12:11;;;;;;;2.17;1.20;;;;;;;;;;5074961;28;20575;-60
2022/12/30 08:14:38;;;;;;;8.77;7.40;;;;;;;;;;5074878;28;20810;-60
2022/12/30 08:17:05;;;;;;;3.30;2.40;;;;;;;;;;5074955;28;21009;-60
2022/12/30 08:19:32;;;;;;;4.27;3.20;;;;;;;;;;5074962;28;20497;-60
2022/12/30 08:21:59;;;;;;;3.77;2.80;;;;;;;;;;5074557;28;20455;-60
2022/12/30 08:24:28;;;;;;;6.80;3.30;;;;;;;;;;5074485;28;20958;-60
2022/12/30 08:26:55;;;;;;;6.40;2.03;;;;;;;;;;5074216;28;20452;-60
2022/12/30 08:29:22;;;;;;;4.80;2.03;;;;;;;;;;5074463;28;20458;-60
2022/12/30 08:31:49;;;;;;;3.43;1.57;;;;;;;;;;5074598;28;20625;-60
2022/12/30 08:34:17;;;;;;;5.60;2.10;;;;;;;;;;5074648;28;20746;-60
2022/12/30 08:36:44;;;;;;;3.77;1.80;;;;;;;;;;5074583;28;20811;-60
2022/12/30 08:39:11;;;;;;;7.03;1.53;;;;;;;;;;5074549;28;20549;-60
2022/12/30 08:41:41;;;;;;;3.97;1.70;;;;;;;;;;5074447;28;20486;-60
2022/12/30 08:44:09;;;;;;;2.77;1.80;;;;;;;;;;5074078;28;20502;-60
2022/12/30 08:46:36;;;;;;;4.23;1.50;;;;;;;;;;5074507;28;20462;-60
2022/12/30 08:49:04;;;;;;;5.23;1.50;;;;;;;;;;5074289;28;20454;-60
2022/12/30 08:51:31;;;;;;;7.83;1.97;;;;;;;;;;5074197;28;21034;-60
2022/12/30 08:53:58;;;;;;;1.70;1.10;;;;;;;;;;5074181;28;20501;-60
2022/12/30 08:56:27;;;;;;;5.70;2.13;;;;;;;;;;5073939;28;20538;-61
2022/12/30 08:58:56;;;;;;;4.43;1.50;;;;;;;;;;5073849;28;20788;-64
2022/12/30 09:01:24;;;;;;;4.93;1.53;;;;;;;;;;5074103;28;20534;-67
2022/12/30 09:03:51;;;;;;;5.00;1.50;;;;;;;;;;5073911;28;20541;-67
2022/12/30 09:06:20;;;;;;;5.33;1.90;;;;;;;;;;5073739;28;20535;-63
2022/12/30 09:08:47;;;;;;;6.03;1.77;;;;;;;;;;5073750;28;20541;-64
2022/12/30 09:11:15;;;;;;;5.07;2.30;;;;;;;;;;5073502;28;21037;-61
2022/12/30 09:13:42;;;;;;;9.20;1.40;;;;;;;;;;5073801;28;20483;-62
2022/12/30 09:16:12;;;;;;;4.90;2.07;;;;;;;;;;5073595;28;20945;-59
2022/12/30 09:18:39;;;;;;;4.73;1.53;;;;;;;;;;5073664;28;20448;-60
2022/12/30 09:21:06;;;;;;;6.13;2.20;;;;;;;;;;5073534;28;20546;-61
2022/12/30 09:23:33;;;;;;;8.63;1.77;;;;;;;;;;5073612;28;20451;-61
2022/12/30 09:26:00;;;;;;;6.03;1.90;;;;;;;;;;5073305;28;20455;-60
2022/12/30 09:28:27;;;;;;;9.43;1.83;;;;;;;;;;5073634;28;20542;-59
2022/12/30 09:30:54;;;;;;;2.73;1.40;;;;;;;;;;5073493;28;20454;-59
2022/12/30 09:33:22;;;;;;;6.23;1.57;;;;;;;;;;5072766;28;20616;-56
2022/12/30 09:35:49;;;;;;;8.20;1.70;;;;;;;;;;5073323;28;20541;-62
2022/12/30 09:38:16;;;;;;;3.37;1.50;;;;;;;;;;5073173;28;20900;-64
2022/12/30 09:40:50;;;;;;;5.87;1.40;;;;;;;;;;5073279;28;20538;-62
2022/12/30 09:43:20;;;;;;;6.00;1.60;;;;;;;;;;5073328;28;20551;-61
2022/12/30 09:45:52;;;;;;;4.47;1.20;;;;;;;;;;5073160;28;20562;-65
2022/12/30 09:48:21;;;;;;;9.20;2.27;;;;;;;;;;5073026;28;21030;-65
2022/12/30 09:50:51;;;;;;;4.00;1.60;;;;;;;;;;5073022;28;20538;-61
2022/12/30 09:53:21;;;;;;;4.17;1.60;;;;;;;;;;5073166;28;20491;-61
2022/12/30 09:55:50;;;;;;;2.70;1.20;;;;;;;;;;5073196;28;20542;-59
2022/12/30 09:58:21;;;;;;;7.33;1.50;;;;;;;;;;5072862;28;20452;-64
2022/12/30 10:00:48;;;;;;;4.40;2.00;;;;;;;;;;5077652;28;20454;-63
2022/12/30 10:03:19;;;;;;;9.13;2.10;;;;;;;;;;5093005;28;20541;-60
2022/12/30 10:05:52;;;;;;;5.43;1.80;;;;;;;;;;5093303;28;20882;-72
2022/12/30 10:08:24;;;;;;;4.00;2.27;;;;;;;;;;5093243;28;20450;-66
2022/12/30 10:10:53;;;;;;;4.13;1.80;;;;;;;;;;5093112;28;20464;-61
2022/12/30 10:13:23;;;;;;;3.83;1.57;;;;;;;;;;5092930;28;20482;-65
2022/12/30 10:15:53;;;;;;;9.33;1.83;;;;;;;;;;5092909;28;20542;-73
2022/12/30 10:18:29;;;;;;;3.83;1.70;;;;;;;;;;5093066;28;20534;-74
2022/12/30 10:21:07;;;;;;;3.50;1.67;;;;;;;;;;5092499;28;20450;-74
2022/12/30 10:23:39;;;;;;;8.67;1.90;;;;;;;;;;5092928;28;20486;-74
2022/12/30 10:26:10;;;;;;;4.27;1.47;;;;;;;;;;5093152;28;20673;-73
2022/12/30 10:28:38;;;;;;;3.60;1.53;;;;;;;;;;5092666;28;20453;-74
2022/12/30 10:31:07;;;;;;;6.97;1.60;;;;;;;;;;5093045;28;20458;-74
2022/12/30 10:33:35;;;;;;;3.60;1.40;;;;;;;;;;5092779;28;20850;-73
2022/12/30 10:36:10;;;;;;;3.80;1.37;;;;;;;;;;5092696;28;20534;-74
2022/12/30 10:38:37;;;;;;;5.10;1.60;;;;;;;;;;5092751;28;20446;-73
2022/12/30 10:41:07;;;;;;;6.57;1.77;;;;;;;;;;5092534;28;20457;-73
2022/12/30 10:43:40;;;;;;;7.20;1.60;;;;;;;;;;5092724;28;20442;-74
2022/12/30 10:46:14;;;;;;;3.07;1.57;;;;;;;;;;5092469;28;20481;-74
2022/12/30 10:48:51;;;;;;;9.13;1.83;;;;;;;;;;5093951;28;20552;-73
2022/12/30 10:51:20;;;;;;;6.83;1.70;;;;;;;;;;5096468;28;20501;-74
2022/12/30 10:53:48;;;;;;;2.90;1.50;;;;;;;;;;5096455;28;20510;-73
2022/12/30 10:56:18;;;;;;;4.07;1.40;;;;;;;;;;5096499;28;20453;-73
2022/12/30 10:58:46;;;;;;;4.53;1.40;;;;;;;;;;5096629;28;20863;-73
2022/12/30 11:01:19;;;;;;;4.90;1.33;;;;;;;;;;5096543;28;20451;-74
2022/12/30 11:03:48;;;;;;;2.97;1.20;;;;;;;;;;5096381;28;20961;-74
2022/12/30 11:06:24;;;;;;;5.57;1.93;;;;;;;;;;5096560;28;20461;-74
2022/12/30 11:08:51;;;;;;;5.60;1.57;;;;;;;;;;5096496;28;20553;-74
2022/12/30 11:11:18;;;;;;;5.33;1.47;;;;;;;;;;5096476;28;20478;-74
2022/12/30 11:16:40;;;;;;;2.20;1.30;;;;;;;;;;5096468;28;20438;-74
2022/12/30 11:19:07;;;;;;;5.00;1.57;;;;;;;;;;5096704;28;20482;-73
2022/12/30 11:21:36;;;;;;;6.13;1.40;;;;;;;;;;5096415;28;20534;-74
2022/12/30 11:24:04;;;;;;;6.67;1.80;;;;;;;;;;5096185;28;20449;-74
2022/12/30 11:26:32;;;;;;;3.47;1.60;;;;;;;;;;5096136;28;20446;-73
2022/12/30 11:29:00;;;;;;;9.23;2.20;;;;;;;;;;5095998;28;20443;-74
2022/12/30 11:31:32;;;;;;;3.30;1.53;;;;;;;;;;5095947;28;20885;-74
2022/12/30 11:34:00;;;;;;;4.20;1.70;;;;;;;;;;5096088;28;20488;-74
2022/12/30 11:36:33;;;;;;;10.40;2.13;;;;;;;;;;5096043;28;20482;-74
2022/12/30 11:39:13;;;;;;;4.30;2.50;;;;;;;;;;5095842;28;20941;-73
2022/12/30 11:41:46;;;;;;;5.30;1.30;;;;;;;;;;5095901;28;20791;-74
2022/12/30 11:44:15;;;;;;;2.53;1.40;;;;;;;;;;5095836;28;20446;-74
2022/12/30 11:46:44;;;;;;;3.53;1.40;;;;;;;;;;5095808;28;20541;-74
2022/12/30 11:49:21;;;;;;;2.13;1.17;;;;;;;;;;5095968;28;20458;-73
2022/12/30 11:51:50;;;;;;;4.50;1.50;;;;;;;;;;5095558;28;20538;-74
2022/12/30 11:54:19;;;;;;;2.77;1.10;;;;;;;;;;5095732;28;20577;-74
2022/12/30 11:56:56;;;;;;;10.07;3.17;;;;;;;;;;5095675;28;20542;-73
2022/12/30 11:59:25;;;;;;;6.43;1.87;;;;;;;;;;5094787;28;20600;-74
2022/12/30 12:01:54;;;;;;;4.03;1.10;;;;;;;;;;5094835;28;20450;-74
2022/12/30 12:04:31;;;;;;;5.53;1.87;;;;;;;;;;5095392;28;20531;-74
2022/12/30 12:06:59;;;;;;;6.97;1.73;;;;;;;;;;5095420;28;20485;-73
2022/12/30 12:09:30;;;;;;;5.50;1.37;;;;;;;;;;5095434;28;20451;-73
2022/12/30 12:11:59;;;;;;;5.57;1.40;;;;;;;;;;5095311;28;20489;-74
2022/12/30 12:14:30;;;;;;;4.20;1.10;;;;;;;;;;5095022;28;20917;-73
2022/12/30 12:17:00;;;;;;;5.60;3.40;;;;;;;;;;5095284;28;20924;-74
2022/12/30 12:19:32;;;;;;;5.10;1.93;;;;;;;;;;5095333;28;20477;-74
2022/12/30 12:22:02;;;;;;;6.10;1.60;;;;;;;;;;5095096;28;21001;-74
2022/12/30 12:24:34;;;;;;;5.60;1.73;;;;;;;;;;5095108;28;20952;-74
2022/12/30 12:27:03;;;;;;;4.17;1.20;;;;;;;;;;5094870;28;20542;-73
2022/12/30 12:29:30;;;;;;;4.30;1.57;;;;;;;;;;5095117;28;20453;-73
2022/12/30 12:32:09;;;;;;;7.27;2.30;;;;;;;;;;5094750;28;20910;-74
2022/12/30 12:34:43;;;;;;;6.90;1.77;;;;;;;;;;5094693;28;20884;-74
2022/12/30 12:37:15;;;;;;;4.00;1.40;;;;;;;;;;5094698;28;20526;-73
2022/12/30 12:39:53;;;;;;;4.90;1.50;;;;;;;;;;5094746;28;21006;-74
2022/12/30 12:42:23;;;;;;;3.00;1.33;;;;;;;;;;5094837;28;20546;-74
2022/12/30 12:45:01;;;;;;;6.60;1.63;;;;;;;;;;5094336;28;21017;-74
2022/12/30 12:47:37;;;;;;;7.80;1.93;;;;;;;;;;5094585;28;20455;-74
2022/12/30 12:50:12;;;;;;;4.30;1.10;;;;;;;;;;5094423;28;20457;-74
2022/12/30 12:52:45;;;;;;;10.93;2.10;;;;;;;;;;5094663;28;20545;-74
2022/12/30 12:55:21;;;;;;;5.77;1.80;;;;;;;;;;5094507;28;20455;-74
2022/12/30 12:57:53;;;;;;;4.43;1.67;;;;;;;;;;5094388;28;20533;-74
2022/12/30 13:00:21;;;;;;;6.70;1.33;;;;;;;;;;5094523;28;20780;-74
2022/12/30 13:03:09;;;;;;;5.87;1.40;;;;;;;;;;5094672;28;20545;-74
2022/12/30 13:05:39;;;;;;;2.20;1.30;;;;;;;;;;5068426;28;20467;-74
2022/12/30 13:08:11;;;;;;;5.40;1.60;;;;;;;;;;5094296;28;20533;-74
2022/12/30 13:10:43;;;;;;;4.80;2.00;;;;;;;;;;5094057;28;20443;-74
2022/12/30 13:13:13;;;;;;;5.80;1.70;;;;;;;;;;5093921;28;20479;-74
2022/12/30 13:15:41;;;;;;;2.67;1.23;;;;;;;;;;5094259;28;20934;-75
2022/12/30 13:18:12;;;;;;;3.10;1.70;;;;;;;;;;5094115;28;20529;-75
2022/12/30 13:20:44;;;;;;;3.30;1.63;;;;;;;;;;5094074;28;20443;-74
2022/12/30 13:23:12;;;;;;;3.27;1.33;;;;;;;;;;5093940;28;20465;-74
2022/12/30 13:25:42;;;;;;;8.47;1.67;;;;;;;;;;5093727;28;20458;-74
2022/12/30 13:28:13;;;;;;;5.07;1.80;;;;;;;;;;5094004;28;20558;-74
2022/12/30 13:30:44;;;;;;;10.67;1.73;;;;;;;;;;5093943;28;20447;-74
2022/12/30 13:33:14;;;;;;;4.13;1.40;;;;;;;;;;5093527;28;20451;-74
2022/12/30 13:35:52;;;;;;;9.00;2.10;;;;;;;;;;5093613;28;20541;-74
2022/12/30 13:38:25;;;;;;;5.17;2.20;;;;;;;;;;5093841;28;20809;-74
2022/12/30 13:41:06;;;;;;;5.90;1.80;;;;;;;;;;5093780;28;20454;-74
2022/12/30 13:43:37;;;;;;;3.73;1.50;;;;;;;;;;5093622;28;20546;-74
2022/12/30 13:46:05;;;;;;;4.17;1.70;;;;;;;;;;5093654;28;20473;-74
2022/12/30 13:48:33;;;;;;;5.17;1.60;;;;;;;;;;5093376;28;20512;-74
2022/12/30 13:51:03;;;;;;;5.93;1.80;;;;;;;;;;5093632;28;20427;-74
2022/12/30 13:53:36;;;;;;;3.43;1.60;;;;;;;;;;5093586;28;20475;-74
2022/12/30 13:56:06;;;;;;;5.90;2.47;;;;;;;;;;5093451;28;20806;-75
2022/12/30 13:58:34;;;;;;;4.30;1.73;;;;;;;;;;5093262;28;20453;-74
2022/12/30 14:01:20;;;;;;;2.90;1.50;;;;;;;;;;5093597;28;20447;-74
2022/12/30 14:03:47;;;;;;;3.73;1.50;;;;;;;;;;5093644;28;20455;-74
2022/12/30 14:06:27;;;;;;;6.93;1.63;;;;;;;;;;5093176;28;20988;-75
2022/12/30 14:09:10;;;;;;;3.90;1.47;;;;;;;;;;5093167;28;20447;-74
2022/12/30 14:11:38;;;;;;;6.83;1.50;;;;;;;;;;5093244;28;20443;-74
2022/12/30 14:14:18;;;;;;;4.97;1.60;;;;;;;;;;5093153;28;20489;-74
2022/12/30 14:16:46;;;;;;;6.73;1.87;;;;;;;;;;5093184;28;20775;-74
2022/12/30 14:19:18;;;;;;;6.97;1.67;;;;;;;;;;5093011;28;20537;-74
2022/12/30 14:21:48;;;;;;;3.50;1.67;;;;;;;;;;5092943;28;20465;-74
2022/12/30 14:24:30;;;;;;;8.03;1.97;;;;;;;;;;5092131;28;20450;-74
2022/12/30 14:26:58;;;;;;;5.60;1.80;;;;;;;;;;5092955;28;20534;-74
2022/12/30 14:29:27;;;;;;;4.43;1.70;;;;;;;;;;5092781;28;20538;-74
2022/12/30 14:31:56;;;;;;;4.30;1.90;;;;;;;;;;5092954;28;20447;-74
2022/12/30 14:34:24;;;;;;;7.23;2.00;;;;;;;;;;5092650;28;20487;-74
2022/12/30 14:36:58;;;;;;;2.80;1.87;;;;;;;;;;5092746;28;20952;-74
2022/12/30 14:39:25;;;;;;;6.30;1.70;;;;;;;;;;5092876;28;20447;-74
2022/12/30 14:41:52;;;;;;;6.87;1.60;;;;;;;;;;5092821;28;20942;-74
2022/12/30 14:44:21;;;;;;;4.13;1.93;;;;;;;;;;5092494;28;20534;-75
2022/12/30 14:46:51;;;;;;;5.93;1.50;;;;;;;;;;5092725;28;20459;-74
2022/12/30 14:49:23;;;;;;;4.03;2.10;;;;;;;;;;5093086;28;20542;-74
2022/12/30 14:51:54;;;;;;;2.90;1.40;;;;;;;;;;5092734;28;20540;-74
2022/12/30 14:54:23;;;;;;;3.50;1.67;;;;;;;;;;5092594;28;20470;-75
2022/12/30 14:56:53;;;;;;;4.93;2.17;;;;;;;;;;5092661;28;20451;-74
2022/12/30 14:59:22;;;;;;;2.27;1.40;;;;;;;;;;5092647;28;20867;-74
2022/12/30 15:02:02;;;;;;;3.20;1.50;;;;;;;;;;5092687;28;20453;-75
2022/12/30 15:04:29;;;;;;;6.63;1.73;;;;;;;;;;5092845;28;20458;-74
2022/12/30 15:06:56;;;;;;;4.00;1.30;;;;;;;;;;5092547;28;20457;-75
2022/12/30 15:09:25;;;;;;;3.83;1.43;;;;;;;;;;5092466;28;20505;-74
2022/12/30 15:11:54;;;;;;;6.80;2.00;;;;;;;;;;5092452;28;20447;-75
2022/12/30 15:14:23;;;;;;;3.40;1.67;;;;;;;;;;5092796;28;20514;-75
2022/12/30 15:17:05;;;;;;;3.70;1.43;;;;;;;;;;5092369;28;20972;-74
2022/12/30 15:19:32;;;;;;;6.07;2.30;;;;;;;;;;5092474;28;20537;-74
2022/12/30 15:21:59;;;;;;;5.23;1.40;;;;;;;;;;5092443;28;20449;-74
2022/12/30 15:24:26;;;;;;;7.10;2.37;;;;;;;;;;5092225;28;20453;-74
2022/12/30 15:26:53;;;;;;;3.03;1.60;;;;;;;;;;5092278;28;20529;-75
2022/12/30 15:29:24;;;;;;;2.33;1.50;;;;;;;;;;5092496;28;20478;-74
2022/12/30 15:31:52;;;;;;;2.27;1.40;;;;;;;;;;5092380;28;20546;-74
2022/12/30 15:34:20;;;;;;;9.77;1.70;;;;;;;;;;5092915;28;20984;-74
2022/12/30 15:36:47;;;;;;;3.77;1.63;;;;;;;;;;5095922;28;20992;-74
2022/12/30 15:39:16;;;;;;;2.97;1.70;;;;;;;;;;5096312;28;20483;-75
2022/12/30 15:41:44;;;;;;;4.60;1.27;;;;;;;;;;5095793;28;20960;-74
2022/12/30 15:44:15;;;;;;;4.93;2.00;;;;;;;;;;5095802;28;20465;-74
2022/12/30 15:46:50;;;;;;;3.40;1.70;;;;;;;;;;5095754;28;20453;-74